Billings, MT

10:08 AM MDT on September 30, 2014 (GMT -0600)
Downtown Billings | Change Station
CLOSE
Current Station
Personal Weather Station
Location: Billings, MT
Elevation: 3127 ft
Nearby Weather Stations

Elev 3127 ft 45.78 °N, 108.50 °W | Updated 34 minutes ago

Mostly Cloudy
Mostly Cloudy
49.3 °F
Feels Like 49 °F
N
1.8
Wind Variable Wind from SSE
Gusts 3.4 mph

Today
High -- | Low -- °F
--% Chance of Precip.
Yesterday
High -- | Low -- °F
Precip. -- in
7:11 AM 6:55 PM
Waxing Crescent, 38% visible
Pressure 29.68 in
Visibility 10.0 miles
Clouds Scattered Clouds 8000 ft
Mostly Cloudy 22000 ft
Windchill 49 °F
Dew Point 46 °F
Humidity 89%
Rainfall -999.00 in
Snow Depth 1 in , 0 in , 0 in
UV 1 out of 12
Pollen 3.90 out of 12
Air Quality Not available.
Flu Activity Not available.
METAR KBIL 301553Z 21007KT 10SM SCT080 BKN220 13/07 A2971 RMK AO2 SLP051 T01280072

More Conditions Fewer Conditions

Pressure 29.68 in
Visibility 10.0 miles
Clouds Scattered Clouds 8000 ft
Mostly Cloudy 22000 ft
Windchill 49 °F
Dew Point 46 °F
Humidity 89%
Rainfall -999.00 in
Snow Depth 1 in , 0 in , 0 in
UV 1 out of 12
Pollen 3.90 out of 12
Air Quality Not available.
Flu Activity Not available.
METAR KBIL 301553Z 21007KT 10SM SCT080 BKN220 13/07 A2971 RMK AO2 SLP051 T01280072

More Conditions Fewer Conditions

10-Day Weather Forecast

Almanac

Astronomy

Sep. 30, 2014 Rise Set
Actual Time 7:11 AM MDT 6:55 PM MDT
Civil Twilight 6:41 AM MDT 7:25 PM MDT
Nautical Twilight 6:06 AM MDT 7:59 PM MDT
Astronomical Twilight 5:31 AM MDT 8:35 PM MDT
Moon 1:36 PM MDT 11:15 PM MDT
Length of Visible Light 12h 44m
Length of Day
11h 44m
Tomorrow will be 3m 11s shorter.
Waxing Crescent, 38% of the Moon is Illuminated
Today
Waxing Crescent
Oct 1
First Quarter
Oct 8
Full
Oct 15
Last Quarter
Oct 23
New

Today's Extremes

State Highs State Lows

Community

WunderPhotos

Upload Photos

1,757,675 photos uploaded!

Nearby

Snow Depth

Station Depth Elevation
Brackett Creek 1 in 7320 ft
Daisy Peak 0 in 7600 ft
Mount Lockhart 0 in 6400 ft
Waldron 0 in 5600 ft
Stuart Mountain 0 in 7400 ft

Earthquake Activity

City Distance Mag. Time & Date
No recent earthquake activity has been reported nearby.
Minimum magnitude displayed is 2.5.

Coastal Water Temperatures

Place Temperature
No Stations Reporting

Nearby Weather Stations